Time;durP1;ratioP1;P1;durP2;ratioP2;P2;SDS_P1;SDS_P2;PMS_P1;PMS_P2;Temp;Humidity;BMP_temperature;BMP_pressure;BME280_temperature;BME280_humidity;BME280_pressure;Samples;Min_cycle;Max_cycle;Signal;HPM_P1;HPM_P2
2021/04/19 04:15:14;;;;;;;23.02;14.40;;;;;;;4.07;86.75;99033.31;6055068;23;20026;31
2021/04/19 04:17:39;;;;;;;22.42;14.13;;;;;;;4.02;86.80;99032.38;4954286;28;20117;-75
2021/04/19 04:20:06;;;;;;;21.25;13.68;;;;;;;4.01;87.12;99035.75;4955613;28;20026;-75
2021/04/19 04:22:32;;;;;;;24.33;14.43;;;;;;;3.95;87.37;99033.13;4955812;28;20107;-76
2021/04/19 04:24:58;;;;;;;22.33;13.95;;;;;;;4.00;87.32;99034.06;4955770;28;20074;-76
2021/04/19 04:27:23;;;;;;;26.35;14.40;;;;;;;4.00;87.21;99039.19;4954332;28;20050;-76
2021/04/19 04:29:48;;;;;;;25.13;15.85;;;;;;;3.93;87.42;99039.97;4955881;28;20062;-75
2021/04/19 04:32:14;;;;;;;23.92;15.38;;;;;;;3.93;87.44;99048.50;4955494;28;20027;-74
2021/04/19 04:34:39;;;;;;;24.33;16.02;;;;;;;3.86;87.43;99042.41;4955394;28;20383;-74
2021/04/19 04:37:06;;;;;;;25.52;15.52;;;;;;;3.90;87.49;99047.59;4925555;28;20035;-74
2021/04/19 04:39:31;;;;;;;25.52;15.57;;;;;;;3.92;87.82;99046.78;4936130;29;20493;-74
2021/04/19 04:41:56;;;;;;;29.00;15.93;;;;;;;3.94;87.52;99041.66;4936147;29;20078;-74
2021/04/19 04:44:28;;;;;;;26.85;15.43;;;;;;;3.95;87.86;99040.81;4936274;29;20027;-71
2021/04/19 04:46:59;;;;;;;21.95;14.35;;;;;;;3.98;87.94;99041.72;4936025;29;20079;-76
2021/04/19 04:49:28;;;;;;;22.30;14.30;;;;;;;4.02;87.61;99042.63;4887097;29;20050;-74
2021/04/19 04:51:57;;;;;;;24.02;15.93;;;;;;;3.98;87.71;99040.88;4935729;29;20070;-75
2021/04/19 04:54:24;;;;;;;27.27;16.80;;;;;;;4.06;87.68;99045.25;4887287;29;20068;-75
2021/04/19 04:56:52;;;;;;;21.55;15.18;;;;;;;4.07;87.25;99046.13;4838779;29;20086;-75
2021/04/19 04:59:19;;;;;;;23.48;15.18;;;;;;;4.11;87.50;99042.75;4788974;29;20191;-77
2021/04/19 05:01:46;;;;;;;29.27;17.63;;;;;;;4.22;87.25;99050.56;4838927;29;20039;-75
2021/04/19 05:04:12;;;;;;;27.48;15.85;;;;;;;4.24;86.97;99039.47;4792144;29;20572;-75
2021/04/19 05:06:38;;;;;;;29.05;16.13;;;;;;;4.31;86.77;99051.53;4837394;29;20043;-75
2021/04/19 05:09:06;;;;;;;31.13;17.48;;;;;;;4.34;86.45;99040.44;4820365;29;20119;-75
2021/04/19 05:11:32;;;;;;;26.92;16.23;;;;;;;4.34;86.80;99040.44;4814206;29;20048;-77
2021/04/19 05:14:04;;;;;;;23.65;15.43;;;;;;;4.36;86.88;99044.75;4839270;29;20066;-75
2021/04/19 05:16:31;;;;;;;28.92;16.42;;;;;;;4.51;86.28;99035.50;4786844;29;20536;-75
2021/04/19 05:18:58;;;;;;;27.00;16.05;;;;;;;4.57;85.94;99046.69;4935528;29;20374;-75
2021/04/19 05:21:24;;;;;;;24.33;16.00;;;;;;;4.53;86.13;99046.63;4935258;29;20027;-75
2021/04/19 05:23:49;;;;;;;25.02;15.90;;;;;;;4.60;86.07;99048.44;4934146;29;20028;-75
2021/04/19 05:26:15;;;;;;;31.10;16.30;;;;;;;4.45;85.68;99054.25;4935232;29;20524;-75
2021/04/19 05:28:41;;;;;;;22.63;14.68;;;;;;;4.46;85.59;99055.13;4887444;29;20042;-75
2021/04/19 05:31:07;;;;;;;26.92;14.63;;;;;;;4.49;85.92;99055.13;4935042;29;20019;-75
2021/04/19 05:33:33;;;;;;;29.13;15.95;;;;;;;4.45;85.92;99050.81;4935274;29;20051;-75
2021/04/19 05:35:58;;;;;;;23.52;14.38;;;;;;;4.46;86.07;99050.84;4935117;29;20047;-75
2021/04/19 05:38:25;;;;;;;29.55;16.25;;;;;;;4.51;86.13;99053.47;4935188;29;20035;-75
2021/04/19 05:40:51;;;;;;;28.10;16.38;;;;;;;4.53;86.01;99051.75;4935016;29;20055;-75
2021/04/19 05:43:17;;;;;;;25.27;16.08;;;;;;;4.55;85.67;99048.38;4935020;29;20106;-75
2021/04/19 05:45:42;;;;;;;25.83;14.40;;;;;;;4.61;85.72;99050.13;4935001;29;20119;-74
2021/04/19 05:48:08;;;;;;;20.83;15.00;;;;;;;4.61;85.49;99057.84;4882699;29;20050;-75
2021/04/19 05:50:34;;;;;;;27.27;16.20;;;;;;;4.55;85.73;99061.22;4934978;29;20019;-74
2021/04/19 05:53:00;;;;;;;22.17;16.02;;;;;;;4.57;85.69;99053.50;4934949;29;20168;-74
2021/04/19 05:55:29;;;;;;;29.85;16.00;;;;;;;4.62;85.50;99057.00;4934975;29;20051;-74
2021/04/19 05:58:20;;;;;;;23.23;15.25;;;;;;;4.72;85.51;99063.94;4934731;29;20031;-75
2021/04/19 06:00:54;;;;;;;32.85;15.55;;;;;;;4.81;84.94;99066.59;4934756;29;20034;-74
2021/04/19 06:03:34;;;;;;;33.60;16.05;;;;;;;4.97;84.79;99069.28;4934846;29;20020;-75
2021/04/19 06:06:11;;;;;;;;;;;;;;;5.11;83.94;99072.84;4927571;29;20032;-75
2021/04/19 06:08:51;;;;;;;23.40;14.80;;;;;;;4.75;85.43;99079.38;4913953;29;19918;-75
2021/04/19 06:11:39;;;;;;;25.95;16.35;;;;;;;4.80;86.70;99077.72;4927985;29;20036;-75
2021/04/19 06:14:07;;;;;;;28.98;17.02;;;;;;;4.81;87.66;99079.41;4909394;29;20504;-75
2021/04/19 06:16:39;;;;;;;28.65;16.63;;;;;;;4.94;87.75;99074.44;4914481;29;20095;-75
2021/04/19 06:19:09;;;;;;;33.25;18.70;;;;;;;4.64;89.31;99080.94;4878942;29;20048;-75
2021/04/19 06:21:35;;;;;;;31.25;18.67;;;;;;;4.60;89.52;99085.22;4915370;29;20032;-75
2021/04/19 06:24:02;;;;;;;28.85;18.27;;;;;;;4.64;89.68;99083.50;4915333;29;20028;-76
2021/04/19 06:26:28;;;;;;;35.78;19.27;;;;;;;4.61;90.44;99086.91;4896796;29;20102;-76
2021/04/19 06:28:54;;;;;;;28.90;18.77;;;;;;;4.69;90.85;99083.56;4918500;29;20072;-76
2021/04/19 06:31:21;;;;;;;33.22;19.42;;;;;;;4.72;90.50;99093.88;4915306;29;20024;-76
2021/04/19 06:34:07;;;;;;;30.88;19.75;;;;;;;4.73;91.13;99086.19;4915430;29;20114;-76
2021/04/19 06:36:34;;;;;;;31.15;19.05;;;;;;;4.75;90.85;99089.63;4915478;29;20024;-76
2021/04/19 06:39:00;;;;;;;33.67;18.92;;;;;;;4.80;91.45;99090.53;4914289;29;20024;-76
2021/04/19 06:41:27;;;;;;;29.80;19.83;;;;;;;4.83;91.06;99088.00;4915126;29;20039;-76
2021/04/19 06:43:55;;;;;;;32.60;18.52;;;;;;;5.00;90.75;99089.88;4915267;29;20024;-76
2021/04/19 06:46:21;;;;;;;32.67;18.02;;;;;;;5.12;90.43;99089.97;4915345;29;20080;-76
2021/04/19 06:48:49;;;;;;;31.60;18.85;;;;;;;5.11;90.57;99095.97;4929935;29;20431;-76
2021/04/19 06:51:14;;;;;;;32.67;19.75;;;;;;;5.11;90.39;99093.41;4914075;29;20095;-76
2021/04/19 06:53:40;;;;;;;33.75;18.83;;;;;;;5.03;91.14;99088.22;4915161;29;20115;-76
2021/04/19 06:56:06;;;;;;;34.88;20.35;;;;;;;5.11;91.18;99093.41;4915040;29;20059;-76
2021/04/19 06:58:34;;;;;;;29.20;19.23;;;;;;;5.16;91.38;99094.28;4915190;29;20482;-76
2021/04/19 07:01:02;;;;;;;27.38;19.20;;;;;;;5.14;90.79;99085.72;4914769;29;20078;-76
2021/04/19 07:03:28;;;;;;;35.53;20.92;;;;;;;5.16;91.88;99084.03;4914311;29;20091;-76
2021/04/19 07:05:54;;;;;;;29.67;18.92;;;;;;;5.10;91.52;99086.53;4914956;29;20032;-76
2021/04/19 07:08:26;;;;;;;35.58;20.77;;;;;;;4.98;91.99;99083.84;4913736;29;20016;-76
2021/04/19 07:10:58;;;;;;;32.92;20.45;;;;;;;4.99;92.75;99093.28;4914928;29;20390;-76
2021/04/19 07:13:24;;;;;;;34.85;20.55;;;;;;;5.02;92.72;99088.16;4914499;29;20024;-76
2021/04/19 07:15:50;;;;;;;31.23;19.83;;;;;;;5.11;93.09;99093.41;4914463;29;20032;-76
2021/04/19 07:18:15;;;;;;;30.40;21.38;;;;;;;5.22;92.82;99096.94;4917307;29;20023;-76
2021/04/19 07:20:43;;;;;;;33.53;21.38;;;;;;;5.32;92.86;99091.03;4906134;29;20060;-76
2021/04/19 07:23:08;;;;;;;31.95;20.85;;;;;;;5.40;92.69;99085.94;4899350;29;20033;-76
2021/04/19 07:25:33;;;;;;;32.83;20.65;;;;;;;5.53;92.66;99085.19;4898677;29;20031;-76
2021/04/19 07:28:02;;;;;;;33.80;20.90;;;;;;;5.51;92.42;99083.44;4899161;29;20027;-76
2021/04/19 07:30:28;;;;;;;36.30;21.03;;;;;;;5.48;90.87;99078.28;4899325;29;20025;-76
2021/04/19 07:32:53;;;;;;;32.45;20.60;;;;;;;5.48;90.19;99078.28;4899432;29;20569;-76
2021/04/19 07:35:27;;;;;;;30.88;21.42;;;;;;;5.62;91.25;99074.09;4899228;29;20024;-76
2021/04/19 07:38:05;;;;;;;33.10;20.10;;;;;;;5.75;90.86;99073.31;4898161;29;20064;-76
2021/04/19 07:40:33;;;;;;;34.85;20.80;;;;;;;5.72;91.68;99075.88;4899192;29;20032;-76
2021/04/19 07:43:16;;;;;;;32.53;20.75;;;;;;;5.86;90.80;99071.69;4899158;29;20028;-76
2021/04/19 07:46:03;;;;;;;29.02;19.13;;;;;;;5.81;90.66;99073.38;4898806;29;20029;-76
2021/04/19 07:48:39;;;;;;;29.38;18.17;;;;;;;5.89;89.04;99070.81;4917895;29;20032;-76
2021/04/19 07:51:38;;;;;;;24.02;16.75;;;;;;;5.87;87.29;99068.25;4937184;29;20034;-76
2021/04/19 07:54:16;;;;;;;30.20;18.70;;;;;;;6.03;88.29;99063.22;4899181;29;20032;-76
2021/04/19 07:56:44;;;;;;;27.25;17.67;;;;;;;6.04;87.39;99064.94;4898624;29;20280;-76
2021/04/19 07:59:26;;;;;;;31.27;17.38;;;;;;;6.03;88.58;99065.78;4898979;29;20024;-76
2021/04/19 08:02:02;;;;;;;31.60;19.75;;;;;;;6.02;88.83;99066.66;4897992;29;20403;-76
2021/04/19 08:04:28;;;;;;;29.38;18.50;;;;;;;5.94;87.75;99069.16;4898943;29;20485;-76
2021/04/19 08:06:54;;;;;;;29.45;17.55;;;;;;;6.10;87.86;99072.69;4904349;29;20032;-76
2021/04/19 08:09:29;;;;;;;28.98;17.67;;;;;;;6.23;87.57;99069.28;4898593;29;20052;-76
2021/04/19 08:11:58;;;;;;;28.17;18.42;;;;;;;6.04;86.99;99075.22;4897632;29;20032;-76
2021/04/19 08:14:28;;;;;;;26.83;17.80;;;;;;;6.19;86.97;99070.16;4898551;29;20506;-76
2021/04/19 08:17:09;;;;;;;28.20;18.27;;;;;;;6.29;88.25;99071.06;4898279;29;20131;-76
2021/04/19 08:19:36;;;;;;;35.15;20.55;;;;;;;6.54;89.18;99066.84;4898551;29;20021;-76
2021/04/19 08:22:13;;;;;;;29.20;18.35;;;;;;;6.53;87.37;99070.28;4898363;29;20043;-76
2021/04/19 08:24:39;;;;;;;28.83;20.05;;;;;;;6.62;89.17;99070.28;4897526;29;20031;-76
2021/04/19 08:27:04;;;;;;;30.92;19.27;;;;;;;6.74;87.46;99074.63;4898305;29;20390;-76
2021/04/19 08:29:39;;;;;;;27.77;17.58;;;;;;;6.81;86.09;99077.19;4898036;29;20454;-76
2021/04/19 08:32:06;;;;;;;29.73;18.48;;;;;;;6.88;87.58;99073.78;4898350;29;20031;-76
2021/04/19 08:34:35;;;;;;;29.67;17.92;;;;;;;6.89;86.46;99075.50;4897694;29;20552;-76
2021/04/19 08:37:01;;;;;;;30.70;19.35;;;;;;;6.87;87.46;99077.22;4897849;29;20391;-76
2021/04/19 08:39:26;;;;;;;36.05;19.70;;;;;;;6.93;87.52;99078.94;4898094;29;20028;-75
2021/04/19 08:41:53;;;;;;;34.78;20.40;;;;;;;7.02;87.38;99081.53;4898048;29;20482;-76
2021/04/19 08:44:19;;;;;;;26.88;18.27;;;;;;;7.02;87.21;99085.84;4898011;29;20028;-76
2021/04/19 08:46:44;;;;;;;30.90;18.80;;;;;;;6.76;86.64;99076.31;4897023;29;20048;-76
2021/04/19 08:49:11;;;;;;;26.48;18.10;;;;;;;6.84;86.36;99086.66;4897846;29;20052;-76
2021/04/19 08:51:37;;;;;;;26.33;17.52;;;;;;;6.85;86.09;99089.22;4900761;29;20024;-76
2021/04/19 08:54:03;;;;;;;28.40;17.95;;;;;;;6.99;85.14;99090.97;4897826;29;20023;-76
2021/04/19 08:56:28;;;;;;;33.40;18.83;;;;;;;7.05;85.59;99090.97;4897741;29;20060;-76
2021/04/19 08:58:54;;;;;;;30.70;18.88;;;;;;;7.00;85.65;99090.97;4905311;29;20020;-76
2021/04/19 09:01:20;;;;;;;26.27;18.63;;;;;;;6.85;85.31;99084.06;4897445;29;20458;-77
2021/04/19 09:04:01;;;;;;;33.72;19.17;;;;;;;6.97;85.71;99087.53;4897752;29;20036;-76
2021/04/19 09:06:38;;;;;;;29.83;18.23;;;;;;;7.15;85.77;99097.84;4896385;29;20461;-76
2021/04/19 09:09:03;;;;;;;39.13;20.77;;;;;;;7.07;86.52;99094.44;4897211;29;20024;-76
2021/04/19 09:11:29;;;;;;;28.13;19.25;;;;;;;7.23;86.22;99096.16;4896755;29;20028;-76
2021/04/19 09:14:06;;;;;;;30.10;18.52;;;;;;;7.64;84.27;99088.41;4897518;29;20047;-76
2021/04/19 09:16:37;;;;;;;29.85;18.08;;;;;;;7.77;84.83;99086.66;4897158;29;20028;-76
2021/04/19 09:19:04;;;;;;;30.10;18.40;;;;;;;7.70;83.58;99087.53;4897493;29;20195;-77
2021/04/19 09:21:50;;;;;;;29.00;18.13;;;;;;;8.03;82.83;99081.44;4896469;29;20036;-77
2021/04/19 09:24:22;;;;;;;29.90;18.15;;;;;;;7.84;84.85;99096.13;4900962;29;20016;-77
2021/04/19 09:26:49;;;;;;;28.52;19.20;;;;;;;7.70;83.76;99087.53;4897340;29;20023;-77
2021/04/19 09:29:24;;;;;;;26.38;18.00;;;;;;;7.90;84.32;99090.06;4897276;29;20032;-77
2021/04/19 09:31:55;;;;;;;32.78;19.83;;;;;;;8.25;82.97;99088.25;4907259;29;20028;-78
2021/04/19 09:34:35;;;;;;;29.10;17.63;;;;;;;8.09;82.35;99089.16;4901836;29;20027;-75
2021/04/19 09:37:00;;;;;;;28.35;17.15;;;;;;;8.05;82.38;99084.03;4904813;29;20035;-76
2021/04/19 09:40:05;;;;;;;32.92;18.88;;;;;;;8.27;81.85;99080.50;4907397;29;20020;-76
2021/04/19 09:43:06;;;;;;;28.60;18.20;;;;;;;8.09;83.44;99086.59;4877382;29;20040;-75
2021/04/19 09:45:41;;;;;;;28.52;19.75;;;;;;;8.40;82.81;99082.19;4874663;29;20630;-75
2021/04/19 09:48:06;;;;;;;26.00;17.27;;;;;;;8.38;82.09;99089.09;4894214;29;20024;-75
2021/04/19 09:50:32;;;;;;;30.30;18.25;;;;;;;8.48;81.95;99089.91;4908141;29;20036;-75
2021/04/19 09:52:57;;;;;;;25.48;16.83;;;;;;;8.40;81.04;99087.34;4897002;29;20040;-76
2021/04/19 09:55:23;;;;;;;31.90;19.55;;;;;;;8.86;80.56;99081.09;4896434;29;20051;-75
2021/04/19 09:57:49;;;;;;;28.40;18.73;;;;;;;9.02;80.25;99077.53;4896024;29;20040;-75
2021/04/19 10:00:16;;;;;;;29.90;18.20;;;;;;;9.10;78.86;99080.09;4896589;29;20184;-76
2021/04/19 10:02:43;;;;;;;30.75;18.38;;;;;;;8.70;80.71;99076.03;4896938;29;20067;-75
2021/04/19 10:05:10;;;;;;;30.05;20.35;;;;;;;9.04;83.29;99077.53;4896613;29;20028;-75
2021/04/19 10:07:40;;;;;;;29.05;19.77;;;;;;;9.31;81.70;99077.31;4896310;29;20088;-75
2021/04/19 10:10:07;;;;;;;26.02;18.38;;;;;;;9.62;79.03;99074.47;4895794;29;20021;-76
2021/04/19 10:12:36;;;;;;;30.27;18.10;;;;;;;9.35;78.08;99076.44;4896648;29;20036;-76
2021/04/19 10:15:02;;;;;;;28.13;17.88;;;;;;;9.49;77.38;99074.59;4896740;29;20557;-75
2021/04/19 10:17:32;;;;;;;29.73;18.15;;;;;;;9.00;79.01;99084.47;4896464;29;20064;-75
2021/04/19 10:20:18;;;;;;;29.27;19.17;;;;;;;8.86;82.96;99075.94;4895626;29;20486;-76
2021/04/19 10:22:43;;;;;;;32.15;19.92;;;;;;;9.08;81.35;99074.06;4896599;29;20048;-75
2021/04/19 10:25:09;;;;;;;30.83;19.30;;;;;;;8.95;79.80;99073.28;4895248;29;20119;-75
2021/04/19 10:27:35;;;;;;;30.27;19.33;;;;;;;9.45;79.49;99067.72;4896522;29;20032;-75
2021/04/19 10:30:13;;;;;;;28.70;19.45;;;;;;;9.34;78.07;99066.97;4896991;29;20032;-77
2021/04/19 10:32:39;;;;;;;27.40;17.50;;;;;;;9.79;76.16;99067.41;4895566;29;20074;-78
2021/04/19 10:35:35;;;;;;;30.40;18.52;;;;;;;9.51;75.75;99072.81;4896560;29;20079;-77
2021/04/19 10:38:01;;;;;;;28.52;18.40;;;;;;;9.45;78.19;99066.88;4909076;29;20033;-77
2021/04/19 10:40:27;;;;;;;27.90;18.60;;;;;;;9.48;78.03;99067.69;4900754;29;20106;-77
2021/04/19 10:43:13;;;;;;;31.85;18.20;;;;;;;9.42;78.40;99065.16;4899505;29;21399;-78
2021/04/19 10:45:39;;;;;;;30.10;17.42;;;;;;;9.74;77.62;99062.28;4900570;29;20040;-77
2021/04/19 10:48:25;;;;;;;35.53;20.63;;;;;;;9.33;79.62;99062.66;4901036;29;20024;-76
2021/04/19 10:50:55;;;;;;;65.85;35.10;;;;;;;9.74;77.66;99058.81;4901387;29;20131;-76
2021/04/19 10:53:35;;;;;;;30.42;18.02;;;;;;;9.81;76.17;99057.03;4904586;29;20095;-76
2021/04/19 10:56:01;;;;;;;;;;;;;;;9.86;76.35;99058.69;4904060;29;20031;-75
2021/04/19 10:58:29;;;;;;;26.33;17.65;;;;;;;9.24;77.12;99060.16;4904209;29;19923;-75
2021/04/19 11:00:55;;;;;;;26.75;16.92;;;;;;;9.46;74.76;99048.75;4904152;29;20032;-75
2021/04/19 11:03:21;;;;;;;29.20;18.17;;;;;;;9.95;74.34;99053.41;4904440;29;20103;-75
2021/04/19 11:05:46;;;;;;;30.50;18.80;;;;;;;9.82;77.07;99045.81;4907617;29;20040;-75
2021/04/19 11:08:11;;;;;;;25.90;16.77;;;;;;;10.17;75.25;99048.00;4903773;29;20028;-75
2021/04/19 11:10:37;;;;;;;23.90;16.20;;;;;;;10.25;74.65;99046.19;4903798;29;20091;-75
2021/04/19 11:13:04;;;;;;;25.20;16.77;;;;;;;10.27;74.38;99045.31;4903884;29;20397;-75
2021/04/19 11:15:34;;;;;;;22.80;16.52;;;;;;;10.31;73.69;99038.38;4903348;29;20040;-75
2021/04/19 11:18:01;;;;;;;;;;;;;;;9.76;75.53;99044.13;4903925;29;20043;-76
2021/04/19 11:20:30;;;;;;;24.55;16.05;;;;;;;10.64;72.74;99043.97;4904040;29;19915;-75
2021/04/19 11:22:59;;;;;;;27.05;17.58;;;;;;;10.45;73.77;99039.03;4904046;29;20055;-75
2021/04/19 11:25:27;;;;;;;30.23;16.52;;;;;;;10.32;73.40;99034.03;4903548;29;20035;-75
2021/04/19 11:28:20;;;;;;;27.23;17.52;;;;;;;10.20;74.33;99045.34;4903642;29;20413;-75
2021/04/19 11:30:48;;;;;;;29.33;18.45;;;;;;;10.05;75.50;99039.50;4878697;29;20044;-75
2021/04/19 11:33:25;;;;;;;31.08;18.77;;;;;;;9.93;76.95;99034.47;4903716;29;20036;-75
2021/04/19 11:36:01;;;;;;;29.88;18.30;;;;;;;10.11;73.74;99048.09;4903506;29;20028;-76
2021/04/19 11:38:27;;;;;;;31.83;18.95;;;;;;;9.90;76.63;99047.44;4903599;29;20028;-75
2021/04/19 11:40:58;;;;;;;29.92;17.02;;;;;;;9.86;74.93;99044.88;4903094;29;20038;-75
2021/04/19 11:43:32;;;;;;;30.55;18.58;;;;;;;10.08;75.83;99048.97;4903215;29;20031;-75
2021/04/19 11:46:02;;;;;;;30.58;18.10;;;;;;;10.21;74.34;99049.69;4903633;29;20512;-75
2021/04/19 11:48:29;;;;;;;32.40;19.35;;;;;;;10.19;73.61;99046.25;4903667;29;20039;-75
2021/04/19 11:50:56;;;;;;;30.85;20.02;;;;;;;9.89;74.57;99048.31;4903542;29;20389;-75
2021/04/19 11:53:42;;;;;;;35.53;19.08;;;;;;;10.09;74.68;99039.47;4902504;29;20116;-75
2021/04/19 11:56:09;;;;;;;25.42;17.65;;;;;;;10.27;72.14;99045.31;4903420;29;20490;-75
2021/04/19 11:58:42;;;;;;;28.00;18.35;;;;;;;10.24;73.62;99041.91;4903006;29;20087;-76
2021/04/19 12:01:10;;;;;;;31.48;18.35;;;;;;;10.49;72.67;99045.91;4903257;29;20443;-76
2021/04/19 12:03:37;;;;;;;29.50;18.88;;;;;;;10.63;72.75;99042.25;4902801;29;20032;-75
2021/04/19 12:06:03;;;;;;;30.90;18.60;;;;;;;10.60;74.52;99039.72;4902341;29;20100;-75
2021/04/19 12:08:29;;;;;;;27.95;18.05;;;;;;;10.68;72.08;99046.47;4903155;29;20028;-75
2021/04/19 12:10:54;;;;;;;31.63;18.52;;;;;;;10.55;73.04;99045.81;4902842;29;20028;-75
2021/04/19 12:13:19;;;;;;;34.05;19.85;;;;;;;10.78;71.84;99036.84;4903184;29;20516;-75
2021/04/19 12:15:52;;;;;;;30.98;21.10;;;;;;;10.68;72.80;99041.28;4902285;29;20077;-75
2021/04/19 12:18:18;;;;;;;28.38;17.85;;;;;;;11.26;70.66;99036.94;4902551;29;20032;-75
2021/04/19 12:20:44;;;;;;;29.25;18.38;;;;;;;11.29;71.47;99039.50;4902731;29;20035;-74
2021/04/19 12:23:10;;;;;;;30.13;17.95;;;;;;;11.02;70.77;99038.19;4903149;29;20027;-76
2021/04/19 12:25:35;;;;;;;26.20;17.42;;;;;;;11.05;70.33;99038.16;4902626;29;20040;-76
2021/04/19 12:28:01;;;;;;;27.15;18.05;;;;;;;10.88;71.20;99041.03;4902093;29;20060;-76
2021/04/19 12:30:30;;;;;;;28.52;18.00;;;;;;;11.09;70.46;99041.56;4902520;29;20111;-76
2021/04/19 12:32:58;;;;;;;29.70;17.30;;;;;;;11.04;71.47;99034.72;4901556;29;20439;-74
2021/04/19 12:35:25;;;;;;;23.77;17.25;;;;;;;11.17;70.33;99035.41;4902323;29;20497;-74
2021/04/19 12:37:50;;;;;;;30.17;18.38;;;;;;;10.87;71.22;99036.69;4902699;29;20052;-74
2021/04/19 12:40:17;;;;;;;27.10;19.60;;;;;;;10.96;71.95;99033.13;4901704;29;20103;-74
2021/04/19 12:42:42;;;;;;;30.40;19.38;;;;;;;11.22;72.38;99033.59;4902545;29;20043;-75
2021/04/19 12:45:08;;;;;;;27.17;18.50;;;;;;;11.52;71.20;99036.53;4906256;29;20028;-74
2021/04/19 12:47:35;;;;;;;26.40;18.83;;;;;;;11.34;70.80;99037.69;4902503;29;20037;-75
2021/04/19 12:50:01;;;;;;;27.88;18.33;;;;;;;11.59;68.77;99028.59;4902035;29;20055;-75
2021/04/19 12:52:26;;;;;;;28.20;18.42;;;;;;;11.55;69.83;99028.66;4901886;29;20043;-75
2021/04/19 12:54:52;;;;;;;28.02;18.25;;;;;;;11.51;69.35;99029.63;4902186;29;20036;-74
2021/04/19 12:57:18;;;;;;;28.17;19.20;;;;;;;10.30;72.90;99036.66;4905841;29;20039;-77
2021/04/19 12:59:43;;;;;;;27.85;18.30;;;;;;;11.14;70.78;99029.41;4901717;29;20386;-74
2021/04/19 13:02:08;;;;;;;26.20;18.48;;;;;;;11.08;70.88;99022.56;4901891;29;20051;-76
2021/04/19 13:04:33;;;;;;;26.25;17.92;;;;;;;11.63;69.14;99018.16;4901332;29;20576;-75
2021/04/19 13:06:59;;;;;;;27.67;18.60;;;;;;;11.21;69.38;99016.28;4902203;29;20024;-75
2021/04/19 13:09:24;;;;;;;24.33;16.73;;;;;;;11.61;67.60;99014.75;4901809;29;20103;-74
2021/04/19 13:11:49;;;;;;;32.08;17.90;;;;;;;12.14;65.77;99012.91;4901913;29;20140;-74
2021/04/19 13:14:15;;;;;;;28.52;18.13;;;;;;;12.23;64.55;99010.06;4900710;29;20426;-76
2021/04/19 13:16:40;;;;;;;25.13;16.77;;;;;;;12.34;62.34;99008.13;4901398;29;20039;-77
2021/04/19 13:19:06;;;;;;;24.50;17.13;;;;;;;12.15;63.79;99006.81;4905517;29;20035;-74
2021/04/19 13:21:31;;;;;;;27.92;16.80;;;;;;;12.33;65.03;99011.63;4901855;29;20028;-75
2021/04/19 13:23:57;;;;;;;21.63;16.27;;;;;;;12.46;62.99;99007.84;4901583;29;20037;-75
2021/04/19 13:26:24;;;;;;;27.38;17.80;;;;;;;12.95;61.10;99005.88;4900819;29;20032;-75
2021/04/19 13:28:50;;;;;;;25.45;16.50;;;;;;;12.50;61.33;99009.50;4901539;29;20418;-75
2021/04/19 13:31:15;;;;;;;20.95;15.75;;;;;;;12.01;64.75;99005.34;4905015;29;20021;-75
2021/04/19 13:33:41;;;;;;;23.23;16.20;;;;;;;12.26;64.09;98999.63;4901778;29;20036;-75
2021/04/19 13:36:06;;;;;;;24.02;14.95;;;;;;;12.64;62.29;99005.75;4901784;29;20028;-75
2021/04/19 13:38:32;;;;;;;23.88;15.05;;;;;;;12.48;61.54;99008.69;4899114;29;20138;-74
2021/04/19 13:40:57;;;;;;;14.98;11.60;;;;;;;12.08;60.76;98996.53;4901493;29;20139;-77
2021/04/19 13:43:23;;;;;;;17.38;12.15;;;;;;;11.97;62.21;99003.69;4901437;29;20040;-77
2021/04/19 13:45:48;;;;;;;19.23;12.77;;;;;;;12.09;61.81;98998.25;4900457;29;20058;-76
2021/04/19 13:48:14;;;;;;;25.33;15.77;;;;;;;12.26;62.46;98994.44;4901302;29;20020;-75
2021/04/19 13:50:39;;;;;;;21.25;13.52;;;;;;;12.40;62.44;98987.19;4900671;29;20043;-76
2021/04/19 13:53:05;;;;;;;15.15;11.35;;;;;;;12.30;62.12;98996.09;4905095;29;20025;-75
2021/04/19 13:55:31;;;;;;;16.73;11.63;;;;;;;12.01;63.37;98983.72;4901479;29;20028;-76
2021/04/19 13:57:56;;;;;;;22.15;12.30;;;;;;;12.14;64.38;98989.50;4901079;29;20028;-76
2021/04/19 14:00:22;;;;;;;15.05;11.20;;;;;;;12.22;62.42;98987.59;4900627;29;20024;-76
2021/04/19 14:02:48;;;;;;;15.02;11.18;;;;;;;12.29;62.79;98994.38;4901093;29;20032;-75
2021/04/19 14:05:14;;;;;;;15.35;12.02;;;;;;;12.24;62.98;98985.84;4901191;29;20036;-76
2021/04/19 14:07:40;;;;;;;14.73;11.43;;;;;;;12.22;61.60;98992.78;4901110;29;21112;-76
2021/04/19 14:10:08;;;;;;;15.48;12.02;;;;;;;11.96;63.23;98986.41;4898773;29;20032;-75
2021/04/19 14:12:35;;;;;;;14.93;11.43;;;;;;;11.87;63.16;98985.72;4900251;29;20035;-76
2021/04/19 14:15:01;;;;;;;16.10;11.93;;;;;;;11.66;63.91;98986.97;4901099;29;20096;-75
2021/04/19 14:17:26;;;;;;;15.43;11.18;;;;;;;11.69;64.63;98982.56;4900842;29;20435;-75
2021/04/19 14:19:51;;;;;;;15.50;12.10;;;;;;;11.61;65.43;98983.63;4900690;29;20028;-74
2021/04/19 14:22:17;;;;;;;19.42;13.45;;;;;;;11.62;66.57;98985.31;4901001;29;21373;-75
2021/04/19 14:24:42;;;;;;;25.50;14.45;;;;;;;11.61;67.02;98983.63;4900057;29;20911;-75
2021/04/19 14:27:08;;;;;;;34.75;21.60;;;;;;;11.36;67.00;98984.03;4903698;29;20039;-76
2021/04/19 14:29:34;;;;;;;21.75;15.20;;;;;;;10.66;69.89;98990.38;4904973;29;20036;-76
2021/04/19 14:31:59;;;;;;;18.85;13.75;;;;;;;10.43;70.96;98994.16;4904689;29;20051;-76
2021/04/19 14:34:28;;;;;;;24.95;15.10;;;;;;;10.52;70.56;98994.03;4905038;29;20035;-76
2021/04/19 14:36:54;;;;;;;17.40;13.70;;;;;;;10.62;70.31;98989.56;4903843;29;20035;-76
2021/04/19 14:39:19;;;;;;;18.33;13.00;;;;;;;10.62;69.15;98993.91;4904421;29;20029;-75
2021/04/19 14:41:45;;;;;;;20.27;14.02;;;;;;;10.97;68.41;98991.59;4904532;29;20657;-76
2021/04/19 14:44:10;;;;;;;20.75;12.98;;;;;;;10.94;70.33;98986.50;4904566;29;20537;-76
2021/04/19 14:46:35;;;;;;;26.38;16.50;;;;;;;11.35;66.81;98982.31;4904410;29;20036;-75
2021/04/19 14:49:01;;;;;;;25.90;13.05;;;;;;;11.38;66.39;98984.88;4903982;29;20091;-80
2021/04/19 14:51:26;;;;;;;19.40;13.30;;;;;;;11.42;65.90;98983.94;4904191;29;20573;-79
2021/04/19 14:53:52;;;;;;;18.45;12.77;;;;;;;11.30;66.47;98978.97;4904300;29;20036;-79
2021/04/19 14:56:17;;;;;;;18.80;13.23;;;;;;;11.44;66.33;98976.97;4903519;29;20036;-79
2021/04/19 14:58:43;;;;;;;28.77;13.23;;;;;;;11.58;65.74;98974.13;4903560;29;20072;-80
2021/04/19 15:01:08;;;;;;;20.35;13.63;;;;;;;11.79;65.72;98976.28;4904421;29;20024;-79
2021/04/19 15:03:33;;;;;;;19.42;14.20;;;;;;;11.65;64.56;98975.72;4904369;29;20067;-79
2021/04/19 15:05:59;;;;;;;17.20;13.38;;;;;;;11.33;66.83;98972.00;4903139;29;20059;-78
2021/04/19 15:08:24;;;;;;;17.35;14.30;;;;;;;11.42;68.95;98967.53;4906910;29;20028;-77
2021/04/19 15:10:49;;;;;;;18.75;14.02;;;;;;;11.54;68.07;98975.06;4902021;29;20043;-77
2021/04/19 15:13:15;;;;;;;21.23;14.80;;;;;;;11.34;68.06;98967.66;4913630;29;20032;-78
2021/04/19 15:15:41;;;;;;;17.60;13.52;;;;;;;11.29;68.83;98972.91;4904054;29;20049;-78
2021/04/19 15:18:07;;;;;;;21.15;13.45;;;;;;;11.56;69.83;98971.56;4904164;29;20068;-77
2021/04/19 15:20:32;;;;;;;18.35;13.50;;;;;;;11.67;67.04;98970.50;4903854;29;20029;-77
2021/04/19 15:23:06;;;;;;;19.45;12.55;;;;;;;11.19;67.22;98971.38;4903240;29;20028;-78
2021/04/19 15:25:32;;;;;;;26.13;16.15;;;;;;;11.17;67.95;98974.84;4903344;29;20033;-77
2021/04/19 15:27:58;;;;;;;17.35;12.27;;;;;;;11.02;67.95;98974.28;4904055;29;20063;-77
2021/04/19 15:30:24;;;;;;;20.02;13.82;;;;;;;10.95;68.72;98983.00;4901737;29;20557;-77
2021/04/19 15:32:49;;;;;;;20.13;14.15;;;;;;;10.85;69.84;98976.25;4903621;29;20051;-77
2021/04/19 15:35:15;;;;;;;20.20;15.18;;;;;;;10.96;69.44;98974.34;4903866;29;20035;-79
2021/04/19 15:37:42;;;;;;;17.20;12.80;;;;;;;11.09;68.94;98979.34;4902195;29;20028;-78
2021/04/19 15:40:09;;;;;;;19.73;13.15;;;;;;;11.18;67.97;98976.59;4902923;29;20442;-78
2021/04/19 15:42:35;;;;;;;17.02;12.63;;;;;;;11.23;67.95;98972.19;4903575;29;20063;-76